Time;durP1;ratioP1;P1;durP2;ratioP2;P2;SDS_P1;SDS_P2;PMS_P1;PMS_P2;Temp;Humidity;BMP_temperature;BMP_pressure;BME280_temperature;BME280_humidity;BME280_pressure;Samples;Min_cycle;Max_cycle;Signal;HPM_P1;HPM_P2
2021/08/16 00:00:34;;;;;;;40.10;29.88;;;25.90;99.50;;;;;;5072566;28;20359;-87
2021/08/16 00:03:02;;;;;;;41.72;30.88;;;25.90;99.50;;;;;;5055242;28;20028;-87
2021/08/16 00:05:28;;;;;;;40.28;30.17;;;25.90;99.50;;;;;;5054782;28;20028;-87
2021/08/16 00:07:54;;;;;;;39.08;29.17;;;25.90;99.40;;;;;;5054773;28;20051;-87
2021/08/16 00:10:19;;;;;;;37.50;29.13;;;25.90;99.40;;;;;;5054600;28;20024;-87
2021/08/16 00:12:45;;;;;;;37.55;28.73;;;25.90;99.40;;;;;;5072528;28;20033;-87
2021/08/16 00:15:13;;;;;;;37.15;28.48;;;25.90;99.40;;;;;;5071846;28;20028;-87
2021/08/16 00:17:39;;;;;;;38.70;29.10;;;25.90;99.40;;;;;;5070904;28;20110;-87
2021/08/16 00:20:16;;;;;;;38.85;27.52;;;25.90;99.40;;;;;;5077257;28;20383;-87
2021/08/16 00:22:44;;;;;;;39.42;28.10;;;25.90;99.50;;;;;;5075961;28;20074;-87
2021/08/16 00:25:10;;;;;;;38.13;28.95;;;25.90;99.40;;;;;;5074506;28;20028;-85
2021/08/16 00:27:45;;;;;;;34.95;27.35;;;25.90;99.50;;;;;;5074555;28;20480;-87
2021/08/16 00:30:21;;;;;;;35.08;26.40;;;25.80;99.40;;;;;;5093194;28;20039;-87
2021/08/16 00:32:49;;;;;;;32.92;25.70;;;25.90;99.40;;;;;;5074800;28;20056;-87
2021/08/16 00:35:22;;;;;;;33.90;25.75;;;25.90;99.40;;;;;;5074398;28;20024;-87
2021/08/16 00:37:48;;;;;;;34.15;25.75;;;25.90;99.40;;;;;;5074931;28;20092;-87
2021/08/16 00:40:16;;;;;;;35.30;25.63;;;25.90;99.40;;;;;;5074141;28;20470;-87
2021/08/16 00:42:45;;;;;;;32.17;24.83;;;25.90;99.40;;;;;;5085957;28;20024;-87
2021/08/16 00:45:16;;;;;;;34.63;25.17;;;25.90;99.40;;;;;;5074375;28;20067;-87
2021/08/16 00:47:44;;;;;;;34.15;25.23;;;25.90;99.40;;;;;;5074346;28;20450;-87
2021/08/16 00:50:15;;;;;;;30.52;23.20;;;25.90;99.40;;;;;;5074303;28;20115;-87
2021/08/16 00:52:42;;;;;;;33.90;24.90;;;25.90;99.40;;;;;;5074252;28;20023;-88
2021/08/16 00:55:14;;;;;;;32.70;24.73;;;25.90;99.40;;;;;;5074396;28;20112;-87
2021/08/16 00:57:41;;;;;;;32.28;23.52;;;25.90;99.30;;;;;;5074491;28;20036;-87
2021/08/16 01:00:09;;;;;;;31.10;23.50;;;25.90;99.30;;;;;;5104934;28;20111;-87
2021/08/16 01:02:42;;;;;;;30.13;23.48;;;25.90;99.30;;;;;;5107696;28;20046;-89
2021/08/16 01:05:17;;;;;;;30.48;23.73;;;25.90;99.30;;;;;;5079167;28;20086;-88
2021/08/16 01:07:45;;;;;;;32.95;23.45;;;25.90;99.30;;;;;;5061689;28;20028;-87
2021/08/16 01:10:14;;;;;;;29.15;22.63;;;25.90;99.30;;;;;;5078295;28;20024;-88
2021/08/16 01:12:40;;;;;;;26.40;20.75;;;25.90;99.30;;;;;;5077967;28;20054;-87
2021/08/16 01:15:10;;;;;;;33.33;22.85;;;25.90;99.30;;;;;;5078391;28;20059;-87
2021/08/16 01:17:39;;;;;;;27.10;21.40;;;25.90;99.30;;;;;;5097118;28;20081;-88
2021/08/16 01:20:11;;;;;;;26.70;21.88;;;25.90;99.30;;;;;;5089634;28;20028;-88
2021/08/16 01:22:39;;;;;;;27.17;20.88;;;25.90;99.40;;;;;;5077428;28;20081;-87
2021/08/16 01:25:07;;;;;;;27.70;20.50;;;25.90;99.40;;;;;;5096002;28;20133;-87
2021/08/16 01:27:41;;;;;;;27.95;20.73;;;25.90;99.30;;;;;;5081512;28;20091;-88
2021/08/16 01:30:13;;;;;;;28.17;21.30;;;25.90;99.40;;;;;;5077952;28;20024;-87
2021/08/16 01:32:43;;;;;;;26.67;19.63;;;25.90;99.40;;;;;;5081921;28;20267;-87
2021/08/16 01:35:11;;;;;;;29.98;20.40;;;25.90;99.40;;;;;;5095989;28;20110;-87
2021/08/16 01:37:39;;;;;;;26.25;18.90;;;25.90;99.40;;;;;;5077580;28;20032;-87
2021/08/16 01:40:13;;;;;;;23.95;19.02;;;25.90;99.40;;;;;;5096261;28;20035;-87
2021/08/16 01:42:39;;;;;;;23.73;18.42;;;25.90;99.40;;;;;;5060995;28;20028;-87
2021/08/16 01:45:06;;;;;;;25.63;18.58;;;25.90;99.40;;;;;;5077819;28;20036;-87
2021/08/16 01:47:32;;;;;;;25.42;18.83;;;25.90;99.40;;;;;;5077554;28;20046;-87
2021/08/16 01:50:00;;;;;;;24.55;18.70;;;25.90;99.40;;;;;;5077334;28;20489;-87
2021/08/16 01:52:28;;;;;;;26.42;19.35;;;25.90;99.50;;;;;;5077290;28;20024;-88
2021/08/16 01:54:58;;;;;;;25.15;17.88;;;25.90;99.50;;;;;;5079050;28;20032;-87
2021/08/16 01:57:26;;;;;;;22.63;17.33;;;25.90;99.40;;;;;;5077819;28;20028;-88
2021/08/16 01:59:57;;;;;;;25.65;17.75;;;25.90;99.40;;;;;;5077239;28;20069;-87
2021/08/16 02:02:25;;;;;;;24.63;17.55;;;25.90;99.50;;;;;;5061032;28;20028;-87
2021/08/16 02:04:52;;;;;;;23.35;17.55;;;25.90;99.40;;;;;;5077056;28;20036;-87
2021/08/16 02:07:19;;;;;;;20.23;16.77;;;25.90;99.40;;;;;;5095345;28;20024;-87
2021/08/16 02:09:47;;;;;;;22.75;16.98;;;25.90;99.40;;;;;;5093766;28;20462;-87
2021/08/16 02:12:16;;;;;;;21.40;16.70;;;25.90;99.40;;;;;;5060396;28;20028;-87
2021/08/16 02:14:42;;;;;;;20.40;15.55;;;25.90;99.40;;;;;;5076698;28;20031;-87
2021/08/16 02:17:07;;;;;;;22.23;16.55;;;25.90;99.40;;;;;;5080831;28;20081;-87
2021/08/16 02:19:33;;;;;;;21.40;15.77;;;25.90;99.40;;;;;;5076908;28;20380;-87
2021/08/16 02:21:59;;;;;;;22.65;16.52;;;25.90;99.40;;;;;;5076474;28;20031;-87
2021/08/16 02:24:27;;;;;;;22.42;15.98;;;25.90;99.40;;;;;;5095083;28;20052;-87
2021/08/16 02:26:56;;;;;;;23.50;16.15;;;25.90;99.40;;;;;;5076347;28;20028;-87
2021/08/16 02:29:27;;;;;;;18.02;14.20;;;25.90;99.40;;;;;;5076369;28;20024;-87
2021/08/16 02:31:55;;;;;;;19.98;15.27;;;25.90;99.40;;;;;;5077532;28;20024;-87
2021/08/16 02:34:24;;;;;;;19.65;15.07;;;25.90;99.40;;;;;;5079582;28;20148;-87
2021/08/16 02:36:53;;;;;;;18.63;14.57;;;25.90;99.40;;;;;;5076441;28;20031;-87
2021/08/16 02:39:21;;;;;;;18.83;14.38;;;25.90;99.40;;;;;;5094586;28;20032;-87
2021/08/16 02:41:47;;;;;;;21.10;15.35;;;25.90;99.40;;;;;;5094488;28;20099;-87
2021/08/16 02:44:13;;;;;;;20.00;13.90;;;25.90;99.40;;;;;;5076499;28;20127;-87
2021/08/16 02:46:40;;;;;;;19.35;14.30;;;25.90;99.40;;;;;;5076191;28;20504;-87
2021/08/16 02:49:15;;;;;;;18.98;14.13;;;25.90;99.40;;;;;;5076326;28;20024;-88
2021/08/16 02:51:41;;;;;;;18.58;13.20;;;25.90;99.40;;;;;;5094080;28;20048;-87
2021/08/16 02:54:07;;;;;;;17.15;13.32;;;25.90;99.30;;;;;;5076339;28;20511;-87
2021/08/16 02:56:32;;;;;;;16.70;13.18;;;25.90;99.30;;;;;;5076165;28;20056;-87
2021/08/16 02:59:01;;;;;;;17.10;11.85;;;25.90;99.30;;;;;;5078345;28;20118;-87
2021/08/16 03:01:26;;;;;;;15.48;12.15;;;25.80;99.30;;;;;;5079242;28;20028;-87
2021/08/16 03:03:54;;;;;;;15.55;12.43;;;25.90;99.30;;;;;;5093619;28;20028;-87
2021/08/16 03:06:23;;;;;;;16.08;12.48;;;25.80;99.20;;;;;;5075860;28;20382;-87
2021/08/16 03:08:49;;;;;;;17.85;13.27;;;25.90;99.30;;;;;;5075829;28;20028;-87
2021/08/16 03:11:14;;;;;;;19.42;12.65;;;25.90;99.20;;;;;;5060356;28;20020;-87
2021/08/16 03:13:40;;;;;;;14.70;11.57;;;25.90;99.20;;;;;;5076022;28;20024;-87
2021/08/16 03:16:06;;;;;;;14.77;11.38;;;25.90;99.20;;;;;;5075804;28;20032;-87
2021/08/16 03:18:34;;;;;;;15.00;11.65;;;25.90;99.20;;;;;;5075395;28;20028;-91
2021/08/16 03:21:02;;;;;;;13.85;11.18;;;25.90;99.20;;;;;;5075448;28;20020;-87
2021/08/16 03:23:30;;;;;;;14.40;11.15;;;25.80;99.20;;;;;;5083473;28;20044;-88
2021/08/16 03:25:56;;;;;;;14.52;11.38;;;25.90;99.20;;;;;;5050837;28;20389;-87
2021/08/16 03:28:26;;;;;;;14.48;10.65;;;25.80;99.20;;;;;;5075352;28;20040;-87
2021/08/16 03:30:57;;;;;;;14.27;10.75;;;25.80;99.10;;;;;;5093257;28;20461;-87
2021/08/16 03:33:23;;;;;;;14.73;10.90;;;25.90;99.20;;;;;;5079326;28;20456;-87
2021/08/16 03:35:53;;;;;;;14.90;10.70;;;25.80;99.10;;;;;;5093197;28;20066;-87
2021/08/16 03:38:19;;;;;;;12.52;10.55;;;25.80;99.10;;;;;;5093526;28;20055;-87
2021/08/16 03:40:48;;;;;;;12.30;10.00;;;25.90;99.10;;;;;;5074689;28;20066;-88
2021/08/16 03:43:14;;;;;;;15.27;10.50;;;25.80;99.10;;;;;;5075079;28;20073;-88
2021/08/16 03:45:39;;;;;;;12.05;9.82;;;25.80;99.10;;;;;;5042587;28;20032;-87
2021/08/16 03:48:06;;;;;;;13.57;10.65;;;25.80;99.10;;;;;;5074890;28;20049;-87
2021/08/16 03:50:31;;;;;;;13.52;10.82;;;25.80;99.10;;;;;;5075274;28;20473;-87
2021/08/16 03:53:04;;;;;;;13.43;9.80;;;25.80;99.10;;;;;;5079176;28;20016;-87
2021/08/16 03:55:31;;;;;;;13.57;9.88;;;25.80;99.10;;;;;;5065799;28;20176;-87
2021/08/16 03:58:01;;;;;;;10.85;8.90;;;25.80;99.10;;;;;;5092600;28;20504;-87
2021/08/16 04:00:29;;;;;;;13.95;9.57;;;25.80;99.10;;;;;;5093371;28;20108;-87
2021/08/16 04:03:05;;;;;;;11.23;8.95;;;25.80;99.10;;;;;;5074650;28;20810;-87
2021/08/16 04:05:31;;;;;;;12.05;9.38;;;25.80;99.20;;;;;;5078984;28;20115;-88
2021/08/16 04:07:58;;;;;;;11.82;9.13;;;25.80;99.20;;;;;;5074717;28;20135;-87
2021/08/16 04:10:25;;;;;;;11.68;8.98;;;25.80;99.20;;;;;;5058503;28;20024;-87
2021/08/16 04:12:53;;;;;;;11.38;8.48;;;25.80;99.20;;;;;;5074673;28;20425;-88
2021/08/16 04:15:23;;;;;;;10.20;7.97;;;25.80;99.20;;;;;;5075197;28;20054;-87
2021/08/16 04:17:50;;;;;;;9.60;8.05;;;25.80;99.50;;;;;;5074380;28;20027;-87
2021/08/16 04:20:16;;;;;;;12.75;8.80;;;25.80;99.30;;;;;;5074792;28;20032;-87
2021/08/16 04:22:46;;;;;;;11.13;8.20;;;25.80;99.30;;;;;;5074189;28;20486;-88
2021/08/16 04:25:16;;;;;;;10.15;7.82;;;25.80;99.30;;;;;;5092965;28;20115;-88
2021/08/16 04:27:49;;;;;;;12.82;8.07;;;25.80;99.30;;;;;;5076517;28;20028;-87
2021/08/16 04:30:17;;;;;;;10.43;7.77;;;25.80;99.30;;;;;;5075043;28;20135;-88
2021/08/16 04:32:45;;;;;;;12.10;8.05;;;25.80;99.30;;;;;;5057063;28;20024;-88
2021/08/16 04:35:11;;;;;;;9.35;7.30;;;25.80;99.40;;;;;;5074450;28;20036;-88
2021/08/16 04:37:42;;;;;;;10.13;8.00;;;25.80;99.40;;;;;;5092810;28;20508;-87
2021/08/16 04:40:11;;;;;;;9.38;7.53;;;25.80;99.40;;;;;;5074225;28;20035;-87
2021/08/16 04:42:37;;;;;;;8.55;6.93;;;25.80;99.40;;;;;;5074452;28;20032;-87
2021/08/16 04:45:09;;;;;;;8.70;7.05;;;25.80;99.40;;;;;;5077974;28;20052;-88
2021/08/16 04:47:34;;;;;;;8.23;6.63;;;25.80;99.40;;;;;;5074887;28;20032;-85
2021/08/16 04:50:00;;;;;;;8.57;7.03;;;25.80;99.40;;;;;;5057200;28;20111;-86
2021/08/16 04:52:28;;;;;;;9.88;7.15;;;25.80;99.40;;;;;;5092622;28;20036;-87
2021/08/16 04:54:54;;;;;;;9.52;7.22;;;25.80;99.40;;;;;;5074160;28;20097;-87
2021/08/16 04:57:34;;;;;;;10.85;7.72;;;25.80;99.40;;;;;;5094773;28;20430;-87
2021/08/16 05:00:02;;;;;;;7.07;6.22;;;25.80;99.50;;;;;;5074153;28;20170;-87
2021/08/16 05:02:28;;;;;;;8.30;6.65;;;25.80;99.50;;;;;;5091951;28;20167;-87
2021/08/16 05:04:56;;;;;;;8.65;6.57;;;25.80;99.50;;;;;;5076751;28;20070;-87
2021/08/16 05:07:22;;;;;;;7.97;6.82;;;25.80;99.50;;;;;;5057861;28;20040;-87
2021/08/16 05:09:50;;;;;;;9.35;7.30;;;25.80;99.50;;;;;;5057496;28;20024;-87
2021/08/16 05:12:15;;;;;;;7.15;6.30;;;25.80;99.50;;;;;;5077623;28;20039;-87
2021/08/16 05:14:41;;;;;;;10.18;7.05;;;25.80;99.50;;;;;;5060275;28;20378;-87
2021/08/16 05:17:07;;;;;;;9.10;7.18;;;25.80;99.50;;;;;;5058352;28;20489;-87
2021/08/16 05:19:37;;;;;;;8.50;6.78;;;25.80;99.50;;;;;;5074707;28;20039;-87
2021/08/16 05:22:07;;;;;;;9.65;7.90;;;25.80;99.50;;;;;;5077960;28;20025;-87
2021/08/16 05:24:33;;;;;;;11.45;9.40;;;25.80;99.60;;;;;;5056869;28;20056;-87
2021/08/16 05:27:00;;;;;;;12.15;9.70;;;25.80;99.60;;;;;;5073743;28;20032;-87
2021/08/16 05:29:25;;;;;;;12.82;9.65;;;25.80;99.70;;;;;;5057735;28;20500;-87
2021/08/16 05:31:51;;;;;;;11.88;9.82;;;25.80;99.60;;;;;;5074319;28;20040;-88
2021/08/16 05:34:17;;;;;;;12.23;9.90;;;25.80;99.60;;;;;;5042865;28;20028;-90
2021/08/16 05:36:42;;;;;;;12.50;10.27;;;25.80;99.60;;;;;;5065048;28;20331;-87
2021/08/16 05:39:10;;;;;;;14.27;9.40;;;25.80;99.50;;;;;;5040421;28;20024;-87
2021/08/16 05:41:36;;;;;;;12.00;9.32;;;25.80;99.40;;;;;;5073517;28;20028;-86
2021/08/16 05:44:02;;;;;;;11.50;8.98;;;25.80;99.30;;;;;;5057428;28;20528;-84
2021/08/16 05:46:27;;;;;;;11.18;7.97;;;25.80;99.20;;;;;;5044248;28;20031;-88
2021/08/16 05:48:53;;;;;;;10.07;7.78;;;25.70;99.10;;;;;;5077419;28;20028;-88
2021/08/16 05:51:19;;;;;;;11.07;7.72;;;25.70;99.10;;;;;;5060931;28;20081;-88
2021/08/16 05:53:44;;;;;;;12.25;7.55;;;25.70;99.00;;;;;;5077480;28;20032;-87
2021/08/16 05:56:10;;;;;;;9.27;7.40;;;25.70;99.00;;;;;;5077346;28;20075;-88
2021/08/16 05:58:45;;;;;;;9.95;7.65;;;25.70;98.90;;;;;;5077352;28;20024;-88
2021/08/16 06:01:12;;;;;;;15.45;7.68;;;25.70;98.90;;;;;;5082366;28;20036;-89
2021/08/16 06:03:43;;;;;;;12.45;8.20;;;25.70;98.80;;;;;;5084308;28;20139;-88
2021/08/16 06:06:19;;;;;;;10.20;7.68;;;25.70;98.80;;;;;;5077497;28;20043;-87
2021/08/16 06:08:46;;;;;;;10.95;7.75;;;25.70;98.70;;;;;;5080198;28;20076;-87
2021/08/16 06:11:14;;;;;;;12.25;8.15;;;25.70;98.60;;;;;;5096673;28;20020;-88
2021/08/16 06:13:45;;;;;;;10.45;7.43;;;25.70;98.60;;;;;;5077929;28;20039;-89
2021/08/16 06:16:22;;;;;;;10.07;7.68;;;25.70;98.50;;;;;;5060460;28;20028;-88
2021/08/16 06:18:55;;;;;;;13.15;8.13;;;25.70;98.30;;;;;;5061651;28;20029;-88
2021/08/16 06:21:21;;;;;;;10.18;6.85;;;25.70;98.30;;;;;;5076694;28;20020;-88
2021/08/16 06:23:49;;;;;;;11.65;7.72;;;25.70;98.20;;;;;;5076707;28;20097;-88
2021/08/16 06:26:17;;;;;;;8.73;6.85;;;25.70;98.10;;;;;;5094778;28;20541;-88
2021/08/16 06:28:43;;;;;;;9.77;6.57;;;25.70;98.00;;;;;;5097651;28;20046;-87
2021/08/16 06:31:11;;;;;;;9.65;7.28;;;25.70;97.90;;;;;;5076809;28;20501;-88
2021/08/16 06:33:40;;;;;;;10.40;7.10;;;25.70;97.90;;;;;;5076875;28;20059;-88
2021/08/16 06:36:06;;;;;;;11.07;6.75;;;25.70;97.80;;;;;;5076361;28;20024;-86
2021/08/16 06:38:31;;;;;;;11.50;7.45;;;25.70;97.80;;;;;;5077222;28;20024;-87
2021/08/16 06:40:58;;;;;;;9.35;6.57;;;25.70;97.70;;;;;;5076023;28;20077;-85
2021/08/16 06:43:27;;;;;;;8.25;6.78;;;25.70;97.70;;;;;;5081600;28;20428;-87
2021/08/16 06:45:53;;;;;;;11.18;7.45;;;25.70;97.60;;;;;;5076433;28;20462;-88
2021/08/16 06:48:22;;;;;;;13.57;8.93;;;25.70;97.60;;;;;;5098895;28;20032;-88
2021/08/16 06:50:47;;;;;;;12.88;8.82;;;25.70;97.50;;;;;;5076810;28;20028;-89
2021/08/16 06:53:16;;;;;;;11.40;8.75;;;25.70;97.70;;;;;;5076478;28;20031;-89
2021/08/16 06:55:52;;;;;;;;;;;;;;;;;;;;;
2021/08/16 06:58:19;;;;;;;12.00;8.88;;;25.70;97.40;;;;;;5098918;28;20114;-89
2021/08/16 07:00:49;;;;;;;14.65;9.23;;;25.70;97.40;;;;;;5059967;28;20084;-87
2021/08/16 07:03:15;;;;;;;11.57;9.10;;;25.70;97.40;;;;;;5094108;28;20024;-89
2021/08/16 07:05:45;;;;;;;10.80;8.68;;;25.70;97.30;;;;;;5076419;28;20039;-88
2021/08/16 07:08:16;;;;;;;12.73;9.13;;;25.70;97.30;;;;;;5081519;28;20044;-88
2021/08/16 07:10:47;;;;;;;13.18;9.07;;;25.70;97.20;;;;;;5076243;28;20085;-88
2021/08/16 07:13:13;;;;;;;10.95;8.23;;;25.70;97.20;;;;;;5075882;28;20024;-88
2021/08/16 07:15:39;;;;;;;13.30;8.85;;;25.70;97.20;;;;;;5079597;28;20032;-89
2021/08/16 07:18:05;;;;;;;11.60;8.65;;;25.70;97.20;;;;;;5075912;28;20031;-91
2021/08/16 07:20:33;;;;;;;11.73;8.30;;;25.70;97.20;;;;;;5076309;28;20032;-90
2021/08/16 07:23:01;;;;;;;11.90;8.23;;;25.70;97.10;;;;;;5077432;28;20035;-91
2021/08/16 07:25:27;;;;;;;12.73;9.15;;;25.70;97.20;;;;;;5076177;28;20040;-91
2021/08/16 07:27:57;;;;;;;12.80;8.73;;;25.70;97.20;;;;;;5084801;28;20412;-91
2021/08/16 07:30:23;;;;;;;11.40;8.93;;;25.70;97.20;;;;;;5059655;28;20028;-91
2021/08/16 07:32:51;;;;;;;12.98;10.05;;;25.70;97.20;;;;;;5094267;28;20488;-91
2021/08/16 07:35:26;;;;;;;12.48;9.32;;;25.70;97.20;;;;;;5076661;28;20032;-91
2021/08/16 07:37:54;;;;;;;14.85;10.13;;;25.70;97.20;;;;;;5076076;28;20024;-91
2021/08/16 07:40:25;;;;;;;13.57;10.07;;;25.70;97.20;;;;;;5075270;28;20381;-91
2021/08/16 07:42:51;;;;;;;15.68;11.45;;;25.70;97.20;;;;;;5098263;28;20042;-91
2021/08/16 07:45:17;;;;;;;14.90;10.48;;;25.70;97.20;;;;;;5094384;28;20032;-91
2021/08/16 07:47:45;;;;;;;16.52;12.40;;;25.70;97.20;;;;;;5080082;28;20077;-91
2021/08/16 07:50:16;;;;;;;16.17;11.85;;;25.70;97.20;;;;;;5075326;28;20024;-91
2021/08/16 07:52:43;;;;;;;13.48;10.70;;;25.70;97.10;;;;;;5076993;28;20035;-91
2021/08/16 07:55:10;;;;;;;13.95;11.48;;;25.70;97.10;;;;;;5075420;28;20028;-91
2021/08/16 07:57:38;;;;;;;15.82;11.50;;;25.70;97.10;;;;;;5079466;28;20514;-91
2021/08/16 08:00:15;;;;;;;16.08;12.32;;;25.70;97.10;;;;;;5076740;28;20385;-91
2021/08/16 08:02:47;;;;;;;15.95;12.35;;;25.70;97.10;;;;;;5075099;28;20024;-91
2021/08/16 08:05:28;;;;;;;17.00;12.20;;;25.70;97.00;;;;;;5084256;28;20415;-91
2021/08/16 08:08:06;;;;;;;17.05;12.80;;;25.70;97.00;;;;;;5074723;28;20123;-91
2021/08/16 08:10:39;;;;;;;16.63;12.85;;;25.70;97.00;;;;;;5093233;28;20028;-91
2021/08/16 08:13:06;;;;;;;14.70;12.20;;;25.70;97.00;;;;;;5074480;28;20028;-91
2021/08/16 08:15:31;;;;;;;16.48;12.45;;;25.70;97.00;;;;;;5075325;28;20028;-86
2021/08/16 08:18:10;;;;;;;;;;;;;;;;;;;;;
2021/08/16 08:20:36;;;;;;;17.13;13.05;;;25.70;97.00;;;;;;5092608;28;20028;-88
2021/08/16 08:23:13;;;;;;;18.67;14.65;;;25.70;97.00;;;;;;5092478;28;20059;-90
2021/08/16 08:25:40;;;;;;;18.13;14.15;;;25.70;97.00;;;;;;5074830;28;20038;-88
2021/08/16 08:28:11;;;;;;;17.58;14.90;;;25.70;97.00;;;;;;5072891;28;21368;-88
2021/08/16 08:30:39;;;;;;;20.08;15.98;;;25.70;96.90;;;;;;5093969;28;20050;-88
2021/08/16 08:33:05;;;;;;;23.77;16.73;;;25.70;96.90;;;;;;5074284;28;20056;-88
2021/08/16 08:35:36;;;;;;;22.15;16.42;;;25.70;96.90;;;;;;5074400;28;20035;-88
2021/08/16 08:38:02;;;;;;;20.00;15.63;;;25.70;96.90;;;;;;5058460;28;20078;-88
2021/08/16 08:40:30;;;;;;;21.38;16.17;;;25.70;96.90;;;;;;5093036;28;20024;-88
2021/08/16 08:42:56;;;;;;;19.65;15.60;;;25.70;96.90;;;;;;5074470;28;20028;-88
2021/08/16 08:45:29;;;;;;;20.85;15.52;;;25.70;96.80;;;;;;5096433;28;20039;-88
2021/08/16 08:47:58;;;;;;;21.35;16.10;;;25.70;96.80;;;;;;5074740;28;20028;-88
2021/08/16 08:50:28;;;;;;;20.98;15.77;;;25.70;96.80;;;;;;5074074;28;20096;-88
2021/08/16 08:52:58;;;;;;;19.42;15.05;;;25.70;96.70;;;;;;5058403;28;20389;-87
2021/08/16 08:55:34;;;;;;;19.50;15.23;;;25.70;96.70;;;;;;5073684;28;20093;-88
2021/08/16 08:58:06;;;;;;;17.95;13.57;;;25.70;96.70;;;;;;5092475;28;20024;-87
2021/08/16 09:00:36;;;;;;;15.77;13.13;;;25.70;96.60;;;;;;5078760;28;20009;-89
2021/08/16 09:03:05;;;;;;;19.20;13.13;;;25.70;96.60;;;;;;5074934;28;20024;-88
2021/08/16 09:05:32;;;;;;;15.40;12.60;;;25.70;96.60;;;;;;5074033;28;20116;-89
2021/08/16 09:08:00;;;;;;;14.43;11.95;;;25.70;96.80;;;;;;5086456;28;20075;-87
2021/08/16 09:10:30;;;;;;;15.90;12.25;;;25.70;96.60;;;;;;5089521;28;20139;-89
2021/08/16 09:13:00;;;;;;;14.38;11.25;;;25.70;96.50;;;;;;5075071;28;20111;-88
2021/08/16 09:15:31;;;;;;;12.95;10.27;;;25.70;96.50;;;;;;5074162;28;20036;-88
2021/08/16 09:18:03;;;;;;;12.70;10.32;;;25.70;96.40;;;;;;5074561;28;20028;-89
2021/08/16 09:20:35;;;;;;;13.13;10.55;;;25.70;96.40;;;;;;5095635;28;20028;-88
2021/08/16 09:23:02;;;;;;;15.65;10.52;;;25.70;96.30;;;;;;5096210;28;20114;-88
2021/08/16 09:25:32;;;;;;;11.70;9.05;;;25.70;96.30;;;;;;5082094;28;20036;-88
2021/08/16 09:27:58;;;;;;;10.48;8.40;;;25.70;96.30;;;;;;5077934;28;20066;-88
2021/08/16 09:30:40;;;;;;;10.18;8.13;;;25.70;96.20;;;;;;5077927;28;20028;-89
2021/08/16 09:33:22;;;;;;;11.52;8.55;;;25.70;96.20;;;;;;5044651;28;20127;-88
2021/08/16 09:35:58;;;;;;;9.70;8.00;;;25.70;96.20;;;;;;5095618;28;20458;-90
2021/08/16 09:38:42;;;;;;;11.10;8.07;;;25.70;96.20;;;;;;5064806;28;20086;-88
2021/08/16 09:41:25;;;;;;;9.60;7.50;;;25.70;96.10;;;;;;5078105;28;20024;-88
2021/08/16 09:44:08;;;;;;;8.93;6.97;;;25.70;96.00;;;;;;5077691;28;20072;-89
2021/08/16 09:46:34;;;;;;;9.95;6.72;;;25.70;95.90;;;;;;5081137;28;20039;-89
2021/08/16 09:49:04;;;;;;;8.02;6.82;;;25.70;95.80;;;;;;5077622;28;20036;-88
2021/08/16 09:51:31;;;;;;;7.85;5.90;;;25.70;95.80;;;;;;5077276;28;20782;-89
2021/08/16 09:53:59;;;;;;;9.70;6.03;;;25.70;95.80;;;;;;5077424;28;20404;-88
2021/08/16 09:56:25;;;;;;;6.97;5.90;;;25.70;95.90;;;;;;5077825;28;20078;-89
2021/08/16 09:58:51;;;;;;;6.78;4.95;;;25.70;95.90;;;;;;5061981;28;20032;-88
2021/08/16 10:01:18;;;;;;;8.38;5.30;;;25.70;96.00;;;;;;5066117;28;20032;-88
2021/08/16 10:03:44;;;;;;;7.97;5.28;;;25.60;96.00;;;;;;5060564;28;20195;-89
2021/08/16 10:06:13;;;;;;;7.63;5.18;;;25.60;96.10;;;;;;5095518;28;20059;-88
2021/08/16 10:08:42;;;;;;;7.45;4.85;;;25.60;96.10;;;;;;5064612;28;20032;-89
2021/08/16 10:11:08;;;;;;;5.97;4.82;;;25.60;96.20;;;;;;5095549;28;20103;-89
2021/08/16 10:13:42;;;;;;;7.35;4.82;;;25.60;96.20;;;;;;5060410;28;20104;-88
2021/08/16 10:16:14;;;;;;;;;;;25.60;96.30;;;;;;5077638;28;20020;-89
2021/08/16 10:19:14;;;;;;;6.47;4.10;;;25.60;96.30;;;;;;5077322;28;19911;-88
2021/08/16 10:21:43;;;;;;;4.53;4.07;;;25.60;96.20;;;;;;5065271;28;20106;-88
2021/08/16 10:24:28;;;;;;;5.93;4.22;;;25.60;96.20;;;;;;5095118;28;20075;-89
2021/08/16 10:27:08;;;;;;;6.43;4.15;;;25.60;96.20;;;;;;5077898;28;20078;-88
2021/08/16 10:29:38;;;;;;;6.60;4.18;;;25.60;96.20;;;;;;5095767;28;20024;-89
2021/08/16 10:32:09;;;;;;;5.78;4.07;;;25.60;96.20;;;;;;5076313;28;20384;-89
2021/08/16 10:34:43;;;;;;;6.07;3.72;;;25.60;96.20;;;;;;5085401;28;20109;-89
2021/08/16 10:37:15;;;;;;;;;;;25.60;96.20;;;;;;5061478;28;20028;-90
2021/08/16 10:39:49;;;;;;;5.57;3.50;;;25.60;96.20;;;;;;5077671;28;19904;-89
2021/08/16 10:42:25;;;;;;;4.30;3.58;;;25.60;96.20;;;;;;5060216;28;20039;-88
2021/08/16 10:44:56;;;;;;;6.18;3.88;;;25.60;96.20;;;;;;5076551;28;20039;-87
2021/08/16 10:47:37;;;;;;;4.32;3.58;;;25.60;96.20;;;;;;5076370;28;20024;-88
2021/08/16 10:50:07;;;;;;;4.45;3.40;;;25.60;96.20;;;;;;5076841;28;20024;-88
2021/08/16 10:52:43;;;;;;;6.35;3.60;;;25.60;96.20;;;;;;5079442;28;20088;-88
2021/08/16 10:55:17;;;;;;;7.07;3.97;;;25.60;96.20;;;;;;5076778;28;20481;-88
2021/08/16 10:57:47;;;;;;;5.57;3.05;;;25.70;96.20;;;;;;5094496;28;20327;-88
2021/08/16 11:00:16;;;;;;;4.30;3.35;;;25.70;96.20;;;;;;5094171;28;20034;-88
2021/08/16 11:02:42;;;;;;;5.18;3.55;;;25.60;96.10;;;;;;5093514;28;20027;-88
2021/08/16 11:05:16;;;;;;;5.55;3.17;;;25.60;96.10;;;;;;5076333;28;20031;-88
2021/08/16 11:07:50;;;;;;;4.95;3.30;;;25.60;96.00;;;;;;5076209;28;20051;-88
2021/08/16 11:10:16;;;;;;;5.23;3.37;;;25.60;96.00;;;;;;5076304;28;20024;-88
2021/08/16 11:12:47;;;;;;;6.40;3.38;;;25.60;95.90;;;;;;5103798;28;20054;-88
2021/08/16 11:15:15;;;;;;;5.65;3.40;;;25.60;95.80;;;;;;5060116;28;20028;-88
2021/08/16 11:17:41;;;;;;;6.78;3.20;;;25.60;95.70;;;;;;5076072;28;20024;-88
2021/08/16 11:20:17;;;;;;;6.15;3.53;;;25.60;95.60;;;;;;5093986;28;20024;-87
2021/08/16 11:22:54;;;;;;;5.03;3.40;;;25.60;95.50;;;;;;5076117;28;20024;-87
2021/08/16 11:25:20;;;;;;;5.88;3.55;;;25.60;95.40;;;;;;5075271;28;20056;-87
2021/08/16 11:27:49;;;;;;;6.57;3.13;;;25.60;95.20;;;;;;5059432;28;20040;-87
2021/08/16 11:30:19;;;;;;;4.80;2.88;;;25.60;95.00;;;;;;5060094;28;20028;-87
2021/08/16 11:32:48;;;;;;;8.73;3.42;;;25.60;94.90;;;;;;5076660;28;20427;-88
2021/08/16 11:35:16;;;;;;;5.03;2.90;;;25.60;94.90;;;;;;5080339;28;20107;-87
2021/08/16 11:37:48;;;;;;;4.53;3.00;;;25.60;94.80;;;;;;5075640;28;20024;-87
2021/08/16 11:40:15;;;;;;;5.70;2.92;;;25.50;94.60;;;;;;5075763;28;20081;-87
2021/08/16 11:42:48;;;;;;;5.97;3.20;;;25.50;94.50;;;;;;5075170;28;20541;-88
2021/08/16 11:45:17;;;;;;;6.22;3.03;;;25.50;94.50;;;;;;5075481;28;20034;-87
2021/08/16 11:47:49;;;;;;;5.82;2.85;;;25.50;94.50;;;;;;5093220;28;20035;-87
2021/08/16 11:50:20;;;;;;;5.18;3.08;;;25.50;94.50;;;;;;5075245;28;20024;-87
2021/08/16 11:52:50;;;;;;;6.88;3.40;;;25.50;94.40;;;;;;5058333;28;20028;-87
2021/08/16 11:55:22;;;;;;;4.85;3.28;;;25.50;94.50;;;;;;5075497;28;20028;-87
2021/08/16 11:57:59;;;;;;;7.60;3.88;;;25.50;94.30;;;;;;5059524;28;20120;-87
2021/08/16 12:00:30;;;;;;;6.10;3.50;;;25.50;94.30;;;;;;5059146;28;20036;-89
2021/08/16 12:02:58;;;;;;;5.90;3.83;;;25.50;94.20;;;;;;5075046;28;20057;-87
2021/08/16 12:05:30;;;;;;;7.63;4.47;;;25.50;94.10;;;;;;5093423;28;20038;-87
2021/08/16 12:07:56;;;;;;;7.28;4.32;;;25.50;94.10;;;;;;5095085;28;20066;-87
2021/08/16 12:10:24;;;;;;;7.18;4.50;;;25.50;94.00;;;;;;5075187;28;20052;-87
2021/08/16 12:13:04;;;;;;;8.27;4.82;;;25.50;93.90;;;;;;5075055;28;20039;-87
2021/08/16 12:15:51;;;;;;;6.65;4.82;;;25.50;93.80;;;;;;5093364;28;20028;-87
2021/08/16 12:18:25;;;;;;;7.60;5.22;;;25.50;93.70;;;;;;5092720;28;20020;-85
2021/08/16 12:20:54;;;;;;;7.93;4.93;;;25.50;93.70;;;;;;5085586;28;20017;-87
2021/08/16 12:23:40;;;;;;;9.15;5.10;;;25.50;93.60;;;;;;5079118;28;20034;-87
2021/08/16 12:26:09;;;;;;;7.50;5.28;;;25.50;93.60;;;;;;5074953;28;20032;-87
2021/08/16 12:28:43;;;;;;;8.70;5.00;;;25.60;93.60;;;;;;5074856;28;20073;-87
2021/08/16 12:31:29;;;;;;;9.20;5.18;;;25.50;93.50;;;;;;5085964;28;20024;-86
2021/08/16 12:34:03;;;;;;;8.48;5.32;;;25.50;93.40;;;;;;5081477;28;20605;-87
2021/08/16 12:36:32;;;;;;;7.20;5.15;;;25.50;93.40;;;;;;5076807;28;20032;-88
2021/08/16 12:39:01;;;;;;;8.20;5.65;;;25.50;93.50;;;;;;5075101;28;20051;-87
2021/08/16 12:41:29;;;;;;;10.10;6.35;;;25.50;93.50;;;;;;5092831;28;20024;-88
2021/08/16 12:43:55;;;;;;;8.80;6.28;;;25.50;93.50;;;;;;5092333;28;20036;-87
2021/08/16 12:46:34;;;;;;;9.82;6.35;;;25.50;93.50;;;;;;5074511;28;20170;-87
2021/08/16 12:49:09;;;;;;;10.30;7.45;;;25.50;93.50;;;;;;5092691;28;20100;-87